Time;durP1;ratioP1;P1;durP2;ratioP2;P2;SDS_P1;SDS_P2;PMS_P1;PMS_P2;Temp;Humidity;BMP_temperature;BMP_pressure;BME280_temperature;BME280_humidity;BME280_pressure;Samples;Min_cycle;Max_cycle;Signal;HPM_P1;HPM_P2
2023/07/07 00:01:09;;;;;;;;;;;;;;;25.09;53.29;99391.47;3184603;27;19923;-69
2023/07/07 00:02:40;;;;;;;;;;;;;;;25.10;53.14;99393.13;3184688;27;19927;-69
2023/07/07 00:04:11;;;;;;;;;;;;;;;25.07;53.53;99388.16;3184722;27;19923;-69
2023/07/07 00:05:42;;;;;;;;;;;;;;;25.05;53.50;99390.16;3184470;27;19972;-69
2023/07/07 00:07:14;;;;;;;;;;;;;;;25.03;53.24;99386.84;3184595;27;20396;-69
2023/07/07 00:08:46;;;;;;;;;;;;;;;25.00;53.79;99397.84;3184466;27;19927;-69
2023/07/07 00:10:18;;;;;;;;;;;;;;;24.98;53.45;99387.34;3184728;27;20001;-69
2023/07/07 00:11:48;;;;;;;;;;;;;;;24.94;53.50;99386.03;3181749;27;19924;-68
2023/07/07 00:13:20;;;;;;;;;;;;;;;24.94;53.68;99396.69;3173446;27;19920;-69
2023/07/07 00:14:51;;;;;;;;;;;;;;;24.93;53.29;99391.53;3184504;27;19920;-69
2023/07/07 00:16:27;;;;;;;;;;;;;;;24.93;53.62;99388.88;3180225;27;20416;-69
2023/07/07 00:17:59;;;;;;;;;;;;;;;24.94;53.51;99386.03;3166853;27;20472;-69
2023/07/07 00:19:32;;;;;;;;;;;;;;;24.95;53.42;99382.38;3159150;28;20127;-69
2023/07/07 00:21:04;;;;;;;;;;;;;;;24.95;53.55;99385.03;3183547;27;19931;-69
2023/07/07 00:22:35;;;;;;;;;;;;;;;24.97;53.17;99382.22;3184127;27;19924;-69
2023/07/07 00:24:08;;;;;;;;;;;;;;;24.96;52.99;99386.72;3184135;27;20420;-69
2023/07/07 00:25:38;;;;;;;;;;;;;;;24.98;53.10;99384.69;3184242;27;19923;-69
2023/07/07 00:27:10;;;;;;;;;;;;;;;24.98;52.89;99384.69;3184366;27;19920;-69
2023/07/07 00:28:42;;;;;;;;;;;;;;;24.98;53.27;99391.84;3183947;27;19923;-69
2023/07/07 00:30:13;;;;;;;;;;;;;;;24.98;53.08;99389.19;3184226;27;20307;-69
2023/07/07 00:31:44;;;;;;;;;;;;;;;24.99;53.24;99390.84;3184327;27;19919;-70
2023/07/07 00:33:15;;;;;;;;;;;;;;;24.95;53.16;99395.69;3184122;27;20300;-69
2023/07/07 00:34:46;;;;;;;;;;;;;;;24.93;53.08;99391.53;3184312;27;19942;-70
2023/07/07 00:36:17;;;;;;;;;;;;;;;24.90;53.30;99386.53;3184476;27;19919;-69
2023/07/07 00:37:49;;;;;;;;;;;;;;;24.85;53.64;99388.91;3176797;27;19923;-69
2023/07/07 00:39:21;;;;;;;;;;;;;;;24.84;53.33;99393.38;3184293;27;20384;-69
2023/07/07 00:40:53;;;;;;;;;;;;;;;24.85;53.61;99399.56;3184011;27;19998;-69
2023/07/07 00:42:24;;;;;;;;;;;;;;;24.85;53.49;99392.41;3184381;27;19920;-69
2023/07/07 00:43:59;;;;;;;;;;;;;;;24.85;53.26;99400.41;3181265;27;19933;-69
2023/07/07 00:45:30;;;;;;;;;;;;;;;24.84;53.26;99406.69;3184079;27;19923;-70
2023/07/07 00:47:02;;;;;;;;;;;;;;;24.82;53.62;99394.59;3171367;28;20341;-69
2023/07/07 00:48:35;;;;;;;;;;;;;;;24.77;53.52;99402.25;3183752;27;19920;-70
2023/07/07 00:50:07;;;;;;;;;;;;;;;24.74;53.41;99404.25;3183852;27;19939;-69
2023/07/07 00:51:41;;;;;;;;;;;;;;;24.72;53.65;99400.09;3184088;27;19931;-69
2023/07/07 00:53:12;;;;;;;;;;;;;;;24.68;53.55;99393.44;3184005;27;19923;-69
2023/07/07 00:54:45;;;;;;;;;;;;;;;24.67;53.55;99397.13;3184059;27;19923;-69
2023/07/07 00:56:20;;;;;;;;;;;;;;;24.66;53.57;99401.59;3180301;27;19919;-69
2023/07/07 00:57:50;;;;;;;;;;;;;;;24.64;53.84;99403.59;3176684;27;20405;-69
2023/07/07 00:59:25;;;;;;;;;;;;;;;24.64;53.52;99403.59;3171012;28;19937;-69
2023/07/07 01:00:59;;;;;;;;;;;;;;;24.64;53.40;99406.28;3171287;28;19927;-69
2023/07/07 01:02:31;;;;;;;;;;;;;;;24.66;53.38;99414.91;3171238;28;19973;-69
2023/07/07 01:04:04;;;;;;;;;;;;;;;24.66;53.73;99416.75;3171261;28;19920;-69
2023/07/07 01:05:37;;;;;;;;;;;;;;;24.62;53.50;99416.25;3171265;28;19923;-69
2023/07/07 01:07:13;;;;;;;;;;;;;;;24.60;53.64;99418.25;3171568;28;19923;-69
2023/07/07 01:08:47;;;;;;;;;;;;;;;24.58;53.62;99414.94;3170851;28;19932;-69
2023/07/07 01:10:21;;;;;;;;;;;;;;;24.59;53.81;99410.44;3170933;28;20004;-69
2023/07/07 01:11:53;;;;;;;;;;;;;;;24.58;53.48;99414.94;3170847;28;19919;-70
2023/07/07 01:13:23;;;;;;;;;;;;;;;24.58;53.75;99408.75;3171439;28;19935;-69
2023/07/07 01:14:55;;;;;;;;;;;;;;;24.55;53.62;99404.63;3170927;28;19942;-69
2023/07/07 01:16:31;;;;;;;;;;;;;;;24.53;53.71;99403.97;3167339;28;19920;-70
2023/07/07 01:18:12;;;;;;;;;;;;;;;24.51;53.68;99412.09;3170598;28;19927;-69
2023/07/07 01:19:57;;;;;;;;;;;;;;;24.51;53.76;99408.59;3171340;28;19920;-69
2023/07/07 01:21:33;;;;;;;;;;;;;;;24.49;53.73;99402.59;3170962;28;20084;-69
2023/07/07 01:23:16;;;;;;;;;;;;;;;24.47;54.14;99410.78;3171018;28;20014;-69
2023/07/07 01:25:01;;;;;;;;;;;;;;;24.46;54.05;99403.81;3170900;28;20014;-69
2023/07/07 01:26:55;;;;;;;;;;;;;;;24.43;53.87;99400.63;3166758;28;20471;-69
2023/07/07 01:28:38;;;;;;;;;;;;;;;24.40;53.86;99400.94;3164628;28;19919;-69
2023/07/07 01:30:34;;;;;;;;;;;;;;;24.39;53.88;99402.78;3170994;28;19923;-70
2023/07/07 01:32:08;;;;;;;;;;;;;;;24.38;54.20;99408.28;3165553;28;19930;-69
2023/07/07 01:33:41;;;;;;;;;;;;;;;24.35;53.88;99406.78;3171117;28;19943;-69
2023/07/07 01:35:13;;;;;;;;;;;;;;;24.35;54.02;99403.28;3170621;28;20359;-69
2023/07/07 01:36:45;;;;;;;;;;;;;;;24.34;54.02;99406.94;3169224;28;19924;-69
2023/07/07 01:38:30;;;;;;;;;;;;;;;24.27;53.94;99394.28;3158440;28;19927;-69
2023/07/07 01:40:03;;;;;;;;;;;;;;;24.35;54.13;99404.13;3166033;28;19931;-69
2023/07/07 01:41:36;;;;;;;;;;;;;;;24.35;54.08;99398.78;3170932;28;19930;-69
2023/07/07 01:43:11;;;;;;;;;;;;;;;24.34;53.94;99393.63;3170555;28;19920;-69
2023/07/07 01:44:45;;;;;;;;;;;;;;;24.32;54.18;99400.97;3167227;28;20313;-70
2023/07/07 01:46:23;;;;;;;;;;;;;;;24.29;54.12;99396.81;3170409;28;19919;-69
2023/07/07 01:47:58;;;;;;;;;;;;;;;24.26;54.06;99397.97;3170363;28;19919;-70
2023/07/07 01:49:31;;;;;;;;;;;;;;;24.23;54.37;99389.50;3170447;28;19924;-69
2023/07/07 01:51:03;;;;;;;;;;;;;;;24.18;54.35;99387.31;3170624;28;19920;-69
2023/07/07 01:52:36;;;;;;;;;;;;;;;24.15;54.86;99386.81;3165647;28;20026;-70
2023/07/07 01:54:10;;;;;;;;;;;;;;;24.13;54.62;99391.47;3161322;28;19923;-69
2023/07/07 01:55:47;;;;;;;;;;;;;;;24.13;54.54;99391.47;3170544;28;19928;-69
2023/07/07 01:57:19;;;;;;;;;;;;;;;24.11;54.76;99386.34;3170497;28;19920;-70
2023/07/07 01:58:51;;;;;;;;;;;;;;;24.11;54.77;99388.13;3170512;28;19931;-69
2023/07/07 02:00:23;;;;;;;;;;;;;;;24.12;54.84;99387.16;3170599;28;19920;-69
2023/07/07 02:01:55;;;;;;;;;;;;;;;24.10;54.63;99389.97;3170673;28;20433;-69
2023/07/07 02:03:28;;;;;;;;;;;;;;;24.09;54.62;99398.97;3170741;28;19923;-69
2023/07/07 02:04:59;;;;;;;;;;;;;;;24.08;54.95;99389.31;3170603;28;20423;-69
2023/07/07 02:06:30;;;;;;;;;;;;;;;24.09;54.88;99400.78;3170729;28;19919;-69
2023/07/07 02:08:01;;;;;;;;;;;;;;;24.08;54.63;99399.97;3170272;28;19930;-69
2023/07/07 02:09:33;;;;;;;;;;;;;;;24.10;54.94;99397.13;3170586;28;19984;-69
2023/07/07 02:11:05;;;;;;;;;;;;;;;24.09;54.95;99403.44;3170583;28;19924;-70
2023/07/07 02:12:35;;;;;;;;;;;;;;;24.07;54.76;99395.63;3172210;28;20038;-70
2023/07/07 02:14:07;;;;;;;;;;;;;;;24.06;55.13;99397.47;3174757;28;19919;-70
2023/07/07 02:15:37;;;;;;;;;;;;;;;24.05;54.80;99390.47;3174577;28;19976;-69
2023/07/07 02:17:15;;;;;;;;;;;;;;;24.06;54.78;99393.97;3170775;28;20021;-70
2023/07/07 02:18:48;;;;;;;;;;;;;;;24.07;54.69;99393.78;3174709;28;19934;-69
2023/07/07 02:20:19;;;;;;;;;;;;;;;24.06;55.05;99392.13;3174878;28;20341;-69
2023/07/07 02:21:50;;;;;;;;;;;;;;;24.06;55.02;99388.66;3174402;28;19919;-69
2023/07/07 02:23:21;;;;;;;;;;;;;;;24.05;55.06;99384.34;3174656;28;20344;-69
2023/07/07 02:24:52;;;;;;;;;;;;;;;24.04;55.03;99394.13;3174402;28;19924;-69
2023/07/07 02:26:23;;;;;;;;;;;;;;;24.04;55.14;99395.94;3174974;28;20752;-70
2023/07/07 02:27:54;;;;;;;;;;;;;;;24.03;55.01;99396.97;3174394;28;19994;-69
2023/07/07 02:29:25;;;;;;;;;;;;;;;24.02;54.90;99387.34;3174580;28;20401;-69
2023/07/07 02:30:56;;;;;;;;;;;;;;;24.02;54.89;99398.78;3174507;28;19919;-70
2023/07/07 02:32:28;;;;;;;;;;;;;;;24.02;55.18;99392.66;3174804;28;20313;-69
2023/07/07 02:34:00;;;;;;;;;;;;;;;23.99;55.30;99392.97;3174518;28;19942;-70
2023/07/07 02:35:31;;;;;;;;;;;;;;;23.98;55.18;99400.09;3174565;28;20340;-70
2023/07/07 02:37:02;;;;;;;;;;;;;;;23.95;55.13;99400.44;3170196;28;19926;-69
2023/07/07 02:38:34;;;;;;;;;;;;;;;23.93;55.45;99405.09;3171369;28;19923;-69
2023/07/07 02:40:07;;;;;;;;;;;;;;;23.94;55.23;99405.94;3174024;28;20011;-69
2023/07/07 02:41:38;;;;;;;;;;;;;;;23.93;55.35;99405.09;3174250;28;19943;-70
2023/07/07 02:43:09;;;;;;;;;;;;;;;23.94;55.24;99405.94;3174609;28;20343;-70
2023/07/07 02:44:40;;;;;;;;;;;;;;;23.94;55.05;99403.28;3170842;28;19919;-70
2023/07/07 02:46:11;;;;;;;;;;;;;;;23.95;55.24;99403.09;3174469;28;19931;-69
2023/07/07 02:47:44;;;;;;;;;;;;;;;23.96;55.03;99403.91;3173900;28;20002;-69
2023/07/07 02:49:16;;;;;;;;;;;;;;;23.97;54.88;99414.41;3171099;28;19920;-69
2023/07/07 02:50:53;;;;;;;;;;;;;;;23.97;54.93;99411.75;3161756;28;19985;-69
2023/07/07 02:52:24;;;;;;;;;;;;;;;23.98;55.28;99409.91;3164298;28;19928;-69
2023/07/07 02:53:56;;;;;;;;;;;;;;;23.97;55.17;99411.75;3174353;28;19963;-69
2023/07/07 02:55:28;;;;;;;;;;;;;;;23.98;54.87;99407.25;3174678;28;19919;-69
2023/07/07 02:56:58;;;;;;;;;;;;;;;23.98;54.83;99409.91;3174437;28;19931;-69
2023/07/07 02:58:30;;;;;;;;;;;;;;;23.92;54.82;99402.59;3174444;28;19926;-69
2023/07/07 03:00:01;;;;;;;;;;;;;;;23.98;55.12;99423.22;3149470;28;19950;-70
2023/07/07 03:01:32;;;;;;;;;;;;;;;23.97;55.20;99416.25;3173387;28;20037;-70
2023/07/07 03:03:04;;;;;;;;;;;;;;;23.97;55.11;99417.06;3174342;28;19927;-69
2023/07/07 03:04:36;;;;;;;;;;;;;;;23.98;54.69;99416.06;3173772;28;19923;-70
2023/07/07 03:06:07;;;;;;;;;;;;;;;24.01;54.81;99421.06;3174656;28;19919;-70
2023/07/07 03:07:38;;;;;;;;;;;;;;;24.02;54.89;99419.25;3174204;28;19920;-70
2023/07/07 03:09:09;;;;;;;;;;;;;;;24.02;55.12;99416.59;3174302;28;19931;-70
2023/07/07 03:10:41;;;;;;;;;;;;;;;24.02;55.00;99414.75;3174177;28;19920;-70
2023/07/07 03:12:12;;;;;;;;;;;;;;;24.02;54.64;99416.59;3174184;28;19923;-70
2023/07/07 03:13:45;;;;;;;;;;;;;;;24.03;54.91;99412.91;3174153;28;20267;-70
2023/07/07 03:15:20;;;;;;;;;;;;;;;24.04;54.90;99411.91;3174371;28;19920;-70
2023/07/07 03:16:52;;;;;;;;;;;;;;;24.05;54.68;99408.28;3170344;28;19991;-69
2023/07/07 03:18:24;;;;;;;;;;;;;;;24.05;54.69;99409.09;3174202;28;19967;-69
2023/07/07 03:19:55;;;;;;;;;;;;;;;24.02;54.66;99408.59;3174253;28;20376;-69
2023/07/07 03:21:26;;;;;;;;;;;;;;;24.01;55.01;99420.22;3174300;28;19919;-69
2023/07/07 03:22:58;;;;;;;;;;;;;;;23.99;54.76;99408.94;3174253;28;19920;-69
2023/07/07 03:24:29;;;;;;;;;;;;;;;23.98;54.80;99407.25;3171689;28;20086;-69
2023/07/07 03:26:05;;;;;;;;;;;;;;;23.98;55.00;99412.56;3172434;28;19920;-69
2023/07/07 03:27:37;;;;;;;;;;;;;;;23.99;55.22;99414.25;3172315;28;20458;-69
2023/07/07 03:29:07;;;;;;;;;;;;;;;23.98;55.20;99407.25;3172099;28;19927;-69
2023/07/07 03:30:39;;;;;;;;;;;;;;;23.98;55.19;99412.56;3172392;28;19931;-70
2023/07/07 03:32:10;;;;;;;;;;;;;;;23.97;55.13;99410.94;3172260;28;19927;-70
2023/07/07 03:33:43;;;;;;;;;;;;;;;23.98;54.92;99412.56;3171989;28;19928;-69
2023/07/07 03:35:14;;;;;;;;;;;;;;;24.00;54.77;99413.25;3172526;28;20303;-69
2023/07/07 03:36:46;;;;;;;;;;;;;;;24.01;55.00;99409.59;3170385;28;19920;-70
2023/07/07 03:38:16;;;;;;;;;;;;;;;24.02;54.67;99412.09;3166541;28;19920;-69
2023/07/07 03:39:48;;;;;;;;;;;;;;;24.05;54.99;99418.91;3172111;28;20638;-68
2023/07/07 03:41:21;;;;;;;;;;;;;;;24.05;55.02;99413.59;3171767;28;19930;-69
2023/07/07 03:42:52;;;;;;;;;;;;;;;24.07;55.00;99411.59;3171949;28;19930;-69
2023/07/07 03:44:23;;;;;;;;;;;;;;;24.08;54.92;99418.59;3167346;28;19931;-69
2023/07/07 03:45:55;;;;;;;;;;;;;;;24.10;54.53;99415.75;3162494;28;19919;-69
2023/07/07 03:47:26;;;;;;;;;;;;;;;24.12;54.81;99419.09;3171623;28;19919;-69
2023/07/07 03:48:59;;;;;;;;;;;;;;;24.14;54.83;99414.44;3172223;28;19920;-70
2023/07/07 03:50:30;;;;;;;;;;;;;;;24.14;54.69;99412.59;3171908;28;19919;-69
2023/07/07 03:52:01;;;;;;;;;;;;;;;24.15;54.31;99414.25;3172090;28;19923;-69
2023/07/07 03:53:32;;;;;;;;;;;;;;;24.18;54.66;99419.25;3172131;28;20281;-69
2023/07/07 03:55:04;;;;;;;;;;;;;;;24.18;54.59;99418.41;3171722;28;19924;-69
2023/07/07 03:56:36;;;;;;;;;;;;;;;24.17;54.90;99416.75;3171580;28;20078;-69
2023/07/07 03:58:06;;;;;;;;;;;;;;;24.16;54.69;99415.09;3171854;28;19919;-69
2023/07/07 03:59:38;;;;;;;;;;;;;;;24.17;54.65;99419.44;3171883;28;19920;-70
2023/07/07 04:01:10;;;;;;;;;;;;;;;24.17;54.78;99422.91;3171853;28;19945;-68
2023/07/07 04:02:43;;;;;;;;;;;;;;;24.19;54.71;99422.72;3164230;28;19926;-69
2023/07/07 04:04:16;;;;;;;;;;;;;;;24.20;54.57;99422.56;3166418;28;20319;-70
2023/07/07 04:05:47;;;;;;;;;;;;;;;24.21;54.77;99426.06;3171434;28;19920;-70
2023/07/07 04:07:19;;;;;;;;;;;;;;;24.21;54.64;99431.38;3171913;28;19931;-70
2023/07/07 04:08:50;;;;;;;;;;;;;;;24.20;54.96;99433.22;3171964;28;20052;-70
2023/07/07 04:10:21;;;;;;;;;;;;;;;24.19;54.74;99426.22;3171552;28;20185;-70
2023/07/07 04:11:52;;;;;;;;;;;;;;;24.20;55.09;99429.72;3168564;28;20333;-70
2023/07/07 04:13:23;;;;;;;;;;;;;;;24.19;55.12;99431.53;3161229;28;19924;-70
2023/07/07 04:14:55;;;;;;;;;;;;;;;24.21;54.84;99428.72;3172058;28;19919;-70
2023/07/07 04:16:25;;;;;;;;;;;;;;;24.23;54.87;99426.75;3167787;28;19942;-70
2023/07/07 04:17:57;;;;;;;;;;;;;;;24.24;55.07;99421.25;3171831;28;19920;-70
2023/07/07 04:19:29;;;;;;;;;;;;;;;24.28;55.17;99424.38;3171846;28;19923;-70
2023/07/07 04:21:01;;;;;;;;;;;;;;;24.31;54.68;99408.09;3171676;28;20399;-70
2023/07/07 04:22:33;;;;;;;;;;;;;;;24.35;54.78;99417.41;3171856;28;19923;-70
2023/07/07 04:24:04;;;;;;;;;;;;;;;24.37;54.55;99418.06;3171712;28;19930;-69
2023/07/07 04:25:36;;;;;;;;;;;;;;;24.41;54.54;99418.59;3171550;28;19927;-70
2023/07/07 04:27:08;;;;;;;;;;;;;;;24.45;54.23;99415.44;3171821;28;19920;-69
2023/07/07 04:28:39;;;;;;;;;;;;;;;24.49;54.19;99418.59;3171907;28;19923;-70
2023/07/07 04:30:11;;;;;;;;;;;;;;;24.55;54.36;99425.06;3171459;28;20261;-70
2023/07/07 04:31:45;;;;;;;;;;;;;;;24.59;53.89;99423.75;3171395;28;20348;-70
2023/07/07 04:33:17;;;;;;;;;;;;;;;24.62;54.17;99426.91;3171649;28;19926;-70
2023/07/07 04:34:50;;;;;;;;;;;;;;;24.66;54.12;99420.22;3171540;28;19920;-70
2023/07/07 04:36:21;;;;;;;;;;;;;;;24.70;53.70;99432.22;3171435;28;19919;-70
2023/07/07 04:37:52;;;;;;;;;;;;;;;24.75;53.93;99426.38;3163636;28;19920;-70
2023/07/07 04:39:23;;;;;;;;;;;;;;;24.79;53.91;99421.53;3171393;28;19930;-70
2023/07/07 04:40:54;;;;;;;;;;;;;;;24.81;53.89;99424.84;3170706;28;19920;-70
2023/07/07 04:42:25;;;;;;;;;;;;;;;24.83;53.84;99431.69;3171222;28;19931;-70
2023/07/07 04:43:57;;;;;;;;;;;;;;;24.87;53.88;99424.19;3170943;28;19920;-70
2023/07/07 04:45:28;;;;;;;;;;;;;;;24.89;53.79;99431.00;3146458;28;19932;-70
2023/07/07 04:46:59;;;;;;;;;;;;;;;24.92;53.43;99427.16;3169891;28;19924;-70
2023/07/07 04:48:31;;;;;;;;;;;;;;;24.95;53.39;99430.31;3170962;28;19931;-70
2023/07/07 04:50:04;;;;;;;;;;;;;;;25.00;53.34;99429.81;3171624;28;19923;-70
2023/07/07 04:51:35;;;;;;;;;;;;;;;25.03;53.46;99429.47;3171442;28;19919;-70
2023/07/07 04:53:06;;;;;;;;;;;;;;;25.07;53.31;99429.97;3170950;28;19919;-70
2023/07/07 04:54:37;;;;;;;;;;;;;;;25.11;53.27;99437.44;3171349;28;19919;-70
2023/07/07 04:56:10;;;;;;;;;;;;;;;25.14;53.27;99431.81;3170942;28;19927;-71
2023/07/07 04:57:42;;;;;;;;;;;;;;;25.17;53.04;99436.78;3170988;28;19919;-70
2023/07/07 04:59:13;;;;;;;;;;;;;;;25.21;53.25;99433.78;3171247;28;19920;-70
2023/07/07 05:00:45;;;;;;;;;;;;;;;25.24;53.13;99436.09;3170797;28;19923;-69
2023/07/07 05:02:17;;;;;;;;;;;;;;;25.27;52.85;99430.41;3170978;28;20425;-69
2023/07/07 05:03:50;;;;;;;;;;;;;;;25.32;53.08;99436.91;3171213;28;20392;-69
2023/07/07 05:05:24;;;;;;;;;;;;;;;25.36;53.05;99429.38;3171253;28;20430;-69
2023/07/07 05:06:55;;;;;;;;;;;;;;;25.39;52.87;99429.03;3171533;28;19927;-69
2023/07/07 05:08:26;;;;;;;;;;;;;;;25.43;52.84;99431.16;3170602;28;20084;-69
2023/07/07 05:09:57;;;;;;;;;;;;;;;25.47;52.85;99431.66;3171185;28;19968;-69
2023/07/07 05:11:29;;;;;;;;;;;;;;;25.52;52.58;99423.13;3170864;28;19924;-70
2023/07/07 05:13:00;;;;;;;;;;;;;;;25.57;52.31;99429.59;3146343;28;19928;-71
2023/07/07 05:14:31;;;;;;;;;;;;;;;25.61;52.43;99422.91;3166745;28;19923;-70
2023/07/07 05:16:03;;;;;;;;;;;;;;;25.68;52.53;99432.88;3160585;28;19924;-70
2023/07/07 05:17:34;;;;;;;;;;;;;;;25.72;52.01;99434.19;3168896;28;20023;-70
2023/07/07 05:19:06;;;;;;;;;;;;;;;25.78;52.02;99433.47;3171216;28;19924;-70
2023/07/07 05:20:38;;;;;;;;;;;;;;;25.81;51.84;99427.78;3170894;28;19984;-70
2023/07/07 05:22:09;;;;;;;;;;;;;;;25.85;51.86;99427.31;3170735;28;19963;-70
2023/07/07 05:23:40;;;;;;;;;;;;;;;25.90;51.82;99421.44;3170672;28;19924;-70
2023/07/07 05:25:11;;;;;;;;;;;;;;;25.94;52.05;99421.91;3170689;28;20304;-70
2023/07/07 05:26:42;;;;;;;;;;;;;;;25.98;52.05;99429.38;3171019;28;19934;-70
2023/07/07 05:28:13;;;;;;;;;;;;;;;26.02;51.58;99428.00;3171212;28;19928;-70
2023/07/07 05:29:45;;;;;;;;;;;;;;;26.08;51.40;99427.28;3171180;28;19920;-70
2023/07/07 05:31:16;;;;;;;;;;;;;;;26.10;51.66;99427.94;3165446;28;19919;-70
2023/07/07 05:32:47;;;;;;;;;;;;;;;26.15;51.34;99438.09;3170752;28;19920;-70
2023/07/07 05:34:19;;;;;;;;;;;;;;;26.18;51.54;99432.41;3170968;28;19924;-70
2023/07/07 05:35:53;;;;;;;;;;;;;;;26.23;51.27;99440.69;3168664;28;19920;-70
2023/07/07 05:37:23;;;;;;;;;;;;;;;26.26;51.37;99442.16;3157922;28;20416;-70
2023/07/07 05:38:55;;;;;;;;;;;;;;;26.33;51.17;99443.13;3169751;28;19919;-70
2023/07/07 05:40:25;;;;;;;;;;;;;;;26.38;50.96;99438.06;3170805;28;20282;-70
2023/07/07 05:41:57;;;;;;;;;;;;;;;26.43;51.19;99434.88;3170742;28;20049;-70
2023/07/07 05:43:27;;;;;;;;;;;;;;;26.47;50.88;99441.50;3170729;28;19926;-71
2023/07/07 05:44:59;;;;;;;;;;;;;;;26.52;51.08;99433.81;3167307;28;19995;-70
2023/07/07 05:46:30;;;;;;;;;;;;;;;26.58;51.01;99440.25;3170905;28;19920;-70
2023/07/07 05:48:01;;;;;;;;;;;;;;;26.63;50.81;99440.56;3170112;28;19969;-70
2023/07/07 05:49:32;;;;;;;;;;;;;;;26.70;50.45;99447.66;3170660;28;19924;-70
2023/07/07 05:51:05;;;;;;;;;;;;;;;26.78;50.34;99446.75;3170467;28;20328;-70
2023/07/07 05:52:37;;;;;;;;;;;;;;;26.82;50.42;99457.88;3170825;28;19920;-70
2023/07/07 05:54:08;;;;;;;;;;;;;;;26.88;50.14;99451.81;3170394;28;20014;-70
2023/07/07 05:55:46;;;;;;;;;;;;;;;26.93;50.44;99454.78;3170524;28;19931;-70
2023/07/07 05:57:16;;;;;;;;;;;;;;;27.02;50.06;99453.66;3170653;28;19935;-70
2023/07/07 05:58:48;;;;;;;;;;;;;;;27.08;50.09;99452.94;3170828;28;19977;-70
2023/07/07 06:00:19;;;;;;;;;;;;;;;27.12;49.95;99456.06;3170786;28;19930;-70
2023/07/07 06:01:51;;;;;;;;;;;;;;;27.16;49.59;99450.19;3170259;28;19920;-70
2023/07/07 06:03:21;;;;;;;;;;;;;;;27.21;49.98;99452.31;3170839;28;19943;-71
2023/07/07 06:04:53;;;;;;;;;;;;;;;27.26;49.86;99455.25;3170966;28;19923;-70
2023/07/07 06:06:25;;;;;;;;;;;;;;;27.33;49.76;99450.00;3170477;28;19924;-70
2023/07/07 06:07:56;;;;;;;;;;;;;;;27.38;49.40;99452.94;3170385;28;19919;-70
2023/07/07 06:09:27;;;;;;;;;;;;;;;27.39;49.44;99452.78;3170855;28;19920;-70
2023/07/07 06:10:59;;;;;;;;;;;;;;;27.45;49.17;99453.88;3170259;28;19930;-70
2023/07/07 06:12:32;;;;;;;;;;;;;;;27.48;49.47;99448.16;3170526;28;19999;-71
2023/07/07 06:14:04;;;;;;;;;;;;;;;27.56;49.16;99455.22;3170475;28;19927;-71
2023/07/07 06:15:34;;;;;;;;;;;;;;;27.62;49.00;99454.47;3170358;28;19923;-70
2023/07/07 06:17:06;;;;;;;;;;;;;;;27.63;49.16;99453.47;3166703;28;19919;-71
2023/07/07 06:18:39;;;;;;;;;;;;;;;27.66;49.13;99461.94;3170562;28;20345;-70
2023/07/07 06:20:10;;;;;;;;;;;;;;;27.75;49.15;99462.66;3170305;28;19931;-70
2023/07/07 06:21:43;;;;;;;;;;;;;;;27.82;48.86;99457.41;3170815;28;19973;-70
2023/07/07 06:23:13;;;;;;;;;;;;;;;27.84;48.40;99458.06;3170443;28;20340;-70
2023/07/07 06:24:45;;;;;;;;;;;;;;;27.87;48.52;99455.81;3170719;28;19923;-70
2023/07/07 06:26:16;;;;;;;;;;;;;;;27.89;48.24;99450.28;3169864;28;19998;-71
2023/07/07 06:27:49;;;;;;;;;;;;;;;27.96;48.54;99453.84;3170659;28;19932;-70
2023/07/07 06:29:21;;;;;;;;;;;;;;;28.03;48.35;99460.09;3170124;28;19919;-70
2023/07/07 06:30:52;;;;;;;;;;;;;;;28.09;48.21;99461.19;3170581;28;19920;-70
2023/07/07 06:32:23;;;;;;;;;;;;;;;28.15;48.27;99460.41;3169624;28;19973;-70
2023/07/07 06:33:54;;;;;;;;;;;;;;;28.26;47.95;99459.91;3169216;28;19919;-70
2023/07/07 06:35:26;;;;;;;;;;;;;;;28.31;47.65;99462.84;3170245;28;20384;-70
2023/07/07 06:36:59;;;;;;;;;;;;;;;28.38;47.30;99462.91;3167151;28;19924;-71
2023/07/07 06:38:30;;;;;;;;;;;;;;;28.42;47.51;99460.69;3170493;28;19920;-70
2023/07/07 06:40:02;;;;;;;;;;;;;;;28.47;47.13;99467.13;3170279;28;19920;-70
2023/07/07 06:41:34;;;;;;;;;;;;;;;28.55;47.01;99460.81;3170003;28;20393;-71
2023/07/07 06:43:04;;;;;;;;;;;;;;;28.60;46.97;99463.72;3169974;28;19920;-70
2023/07/07 06:44:38;;;;;;;;;;;;;;;28.67;46.64;99456.56;3167046;28;20006;-70
2023/07/07 06:46:12;;;;;;;;;;;;;;;28.73;46.64;99455.78;3170147;28;19931;-70
2023/07/07 06:47:43;;;;;;;;;;;;;;;28.79;46.59;99455.00;3170255;28;19924;-71
2023/07/07 06:49:14;;;;;;;;;;;;;;;28.87;46.37;99459.41;3170328;28;19926;-70
2023/07/07 06:50:46;;;;;;;;;;;;;;;28.97;46.34;99457.19;3170155;28;19928;-70
2023/07/07 06:52:18;;;;;;;;;;;;;;;29.07;45.98;99458.72;3170018;28;19924;-70
2023/07/07 06:53:49;;;;;;;;;;;;;;;29.12;45.83;99467.00;3170065;28;19924;-71
2023/07/07 06:55:20;;;;;;;;;;;;;;;29.23;45.79;99463.78;3170186;28;19920;-70
2023/07/07 06:56:51;;;;;;;;;;;;;;;29.34;45.52;99454.31;3170453;28;19919;-70
2023/07/07 06:58:22;;;;;;;;;;;;;;;29.40;45.56;99446.31;3170319;28;20419;-70
2023/07/07 06:59:54;;;;;;;;;;;;;;;29.45;45.03;99451.06;3172556;28;19924;-70
2023/07/07 07:01:25;;;;;;;;;;;;;;;29.43;45.28;99453.97;3172649;28;19919;-70
2023/07/07 07:02:56;;;;;;;;;;;;;;;29.47;45.17;99449.84;3172565;28;19920;-71
2023/07/07 07:04:28;;;;;;;;;;;;;;;29.47;45.09;99455.22;3172627;28;19920;-70
2023/07/07 07:05:59;;;;;;;;;;;;;;;29.48;45.28;99459.53;3172335;28;19923;-70
2023/07/07 07:07:31;;;;;;;;;;;;;;;29.46;45.17;99453.56;3172693;28;20380;-70
2023/07/07 07:09:03;;;;;;;;;;;;;;;29.47;45.18;99449.03;3172527;28;19919;-70
2023/07/07 07:10:34;;;;;;;;;;;;;;;29.47;45.08;99454.38;3172451;28;20000;-71
2023/07/07 07:12:06;;;;;;;;;;;;;;;29.50;45.04;99451.31;3172591;28;19919;-71
2023/07/07 07:13:37;;;;;;;;;;;;;;;29.53;45.30;99450.06;3172450;28;19927;-71
2023/07/07 07:15:10;;;;;;;;;;;;;;;29.60;45.13;99453.59;3172122;28;19930;-70
2023/07/07 07:16:41;;;;;;;;;;;;;;;29.64;44.98;99452.22;3168374;28;19928;-70
2023/07/07 07:18:13;;;;;;;;;;;;;;;29.70;44.77;99457.59;3172215;28;19924;-71
2023/07/07 07:19:44;;;;;;;;;;;;;;;29.77;44.91;99454.09;3172640;28;19934;-70
2023/07/07 07:21:15;;;;;;;;;;;;;;;29.80;44.73;99454.53;3172087;28;19919;-71
2023/07/07 07:22:48;;;;;;;;;;;;;;;29.76;44.58;99453.28;3172715;28;20327;-71
2023/07/07 07:24:20;;;;;;;;;;;;;;;29.75;44.62;99461.53;3172181;28;20333;-70
2023/07/07 07:25:51;;;;;;;;;;;;;;;29.76;44.62;99452.44;3172601;28;19962;-71
2023/07/07 07:27:22;;;;;;;;;;;;;;;29.82;44.54;99452.47;3172370;28;19920;-71
2023/07/07 07:28:53;;;;;;;;;;;;;;;29.91;44.67;99461.16;3169338;28;19930;-71
2023/07/07 07:30:25;;;;;;;;;;;;;;;30.00;44.35;99457.25;3169262;28;19930;-71
2023/07/07 07:31:55;;;;;;;;;;;;;;;30.00;43.93;99453.75;3172041;28;19928;-71
2023/07/07 07:33:27;;;;;;;;;;;;;;;30.04;43.84;99454.97;3172175;28;19924;-71
2023/07/07 07:34:57;;;;;;;;;;;;;;;30.07;43.73;99455.41;3172226;28;19919;-71
2023/07/07 07:36:29;;;;;;;;;;;;;;;30.09;43.79;99457.91;3172544;28;19924;-71
2023/07/07 07:38:02;;;;;;;;;;;;;;;30.14;43.83;99453.56;3164718;28;19919;-71
2023/07/07 07:39:34;;;;;;;;;;;;;;;30.16;43.63;99456.84;3172219;28;19923;-71
2023/07/07 07:41:04;;;;;;;;;;;;;;;30.15;43.59;99447.16;3172505;28;19919;-71
2023/07/07 07:42:36;;;;;;;;;;;;;;;30.15;43.40;99452.53;3172277;28;19926;-71
2023/07/07 07:44:06;;;;;;;;;;;;;;;30.20;43.79;99443.00;3169132;28;19920;-71
2023/07/07 07:45:38;;;;;;;;;;;;;;;30.27;43.58;99444.72;3172196;28;19923;-71
2023/07/07 07:47:09;;;;;;;;;;;;;;;30.38;43.39;99445.97;3172440;28;19924;-71
2023/07/07 07:48:40;;;;;;;;;;;;;;;30.43;42.87;99448.84;3172186;28;19926;-71
2023/07/07 07:50:12;;;;;;;;;;;;;;;30.44;42.74;99444.28;3172102;28;19919;-71
2023/07/07 07:51:44;;;;;;;;;;;;;;;30.45;42.54;99448.66;3172347;28;20458;-71
2023/07/07 07:53:16;;;;;;;;;;;;;;;30.49;42.51;99449.88;3172053;28;20025;-71
2023/07/07 07:54:48;;;;;;;;;;;;;;;30.57;42.50;99450.50;3162396;28;19955;-70
2023/07/07 07:56:19;;;;;;;;;;;;;;;30.70;41.97;99452.34;3168632;28;19953;-70
2023/07/07 07:57:51;;;;;;;;;;;;;;;30.82;42.07;99448.03;3177141;27;19988;-71
2023/07/07 07:59:22;;;;;;;;;;;;;;;30.94;42.09;99450.06;3184949;27;19919;-71
2023/07/07 08:00:53;;;;;;;;;;;;;;;31.04;41.66;99455.84;3184663;27;19951;-70